createdAt,value
2018-12-18T00:00:01.835Z,41.5
2018-12-18T00:05:00.968Z,40.9
2018-12-18T00:10:01.061Z,41.7
2018-12-18T00:15:00.940Z,41.6
2018-12-18T00:20:00.807Z,39.8
2018-12-18T00:25:00.874Z,39.0
2018-12-18T00:30:00.838Z,37.2
2018-12-18T00:35:00.961Z,35.6
2018-12-18T00:40:00.809Z,33.7
2018-12-18T00:45:00.948Z,34.2
2018-12-18T00:50:00.819Z,34.4
2018-12-18T00:55:01.124Z,34.7
2018-12-18T01:00:00.821Z,33.9
2018-12-18T01:05:00.977Z,34.2
2018-12-18T01:10:00.859Z,34.3
2018-12-18T01:15:00.954Z,34.1
2018-12-18T01:20:00.853Z,35.6
2018-12-18T01:25:00.918Z,35.2
2018-12-18T01:30:00.825Z,36.0
2018-12-18T01:35:00.898Z,35.0
2018-12-18T01:40:00.838Z,35.3
2018-12-18T01:45:00.965Z,34.6
2018-12-18T01:50:01.659Z,35.5
2018-12-18T01:55:00.933Z,35.1
2018-12-18T02:00:00.837Z,35.2
2018-12-18T02:05:00.911Z,35.3
2018-12-18T02:10:00.836Z,35.4
2018-12-18T02:15:00.979Z,34.0
2018-12-18T02:20:00.841Z,34.9
2018-12-18T02:25:00.906Z,34.4
2018-12-18T02:30:00.844Z,33.5
2018-12-18T02:35:00.909Z,31.0
2018-12-18T02:40:00.847Z,33.3
2018-12-18T02:45:01.006Z,32.3
2018-12-18T02:50:00.850Z,33.0
2018-12-18T02:55:00.923Z,32.3
2018-12-18T03:00:00.866Z,32.7
2018-12-18T03:05:00.922Z,30.3
2018-12-18T03:10:00.856Z,29.2
2018-12-18T03:15:00.914Z,28.8
2018-12-18T03:20:00.854Z,29.8
2018-12-18T03:25:00.990Z,30.5
2018-12-18T03:30:00.861Z,31.8
2018-12-18T03:35:00.930Z,34.4
2018-12-18T03:40:00.862Z,34.8
2018-12-18T03:45:00.994Z,34.5
2018-12-18T03:50:00.870Z,35.4
2018-12-18T03:55:00.933Z,36.6
2018-12-18T04:00:00.865Z,35.9
2018-12-18T04:05:00.929Z,34.7
2018-12-18T04:10:00.867Z,36.0
2018-12-18T04:15:00.949Z,35.5
2018-12-18T04:20:00.893Z,36.3
2018-12-18T04:25:00.872Z,37.7
2018-12-18T04:30:33.106Z,39.6
2018-12-18T04:35:01.295Z,40.0
2018-12-18T04:40:00.883Z,40.6
2018-12-18T04:45:00.881Z,39.4
2018-12-18T04:50:00.880Z,38.8
2018-12-18T04:55:01.013Z,40.4
2018-12-18T05:00:00.888Z,40.4
2018-12-18T05:05:00.950Z,40.9
2018-12-18T05:10:00.885Z,39.6
2018-12-18T05:15:00.954Z,38.2
2018-12-18T05:20:00.888Z,37.3
2018-12-18T05:25:00.978Z,37.0
2018-12-18T05:30:02.205Z,35.9
2018-12-18T05:35:00.963Z,36.4
2018-12-18T05:40:00.896Z,37.1
2018-12-18T05:45:00.957Z,37.6
2018-12-18T05:50:00.896Z,38.2
2018-12-18T05:55:01.046Z,42.0
2018-12-18T06:00:00.895Z,41.8
2018-12-18T06:05:03.262Z,44.2
2018-12-18T06:10:00.901Z,45.8
2018-12-18T06:15:00.904Z,45.8
2018-12-18T06:20:00.907Z,42.8
2018-12-18T06:30:00.928Z,39.9
2018-12-18T06:35:01.036Z,37.8
2018-12-18T06:40:00.904Z,37.2
2018-12-18T06:45:00.898Z,37.6
2018-12-18T06:50:00.931Z,39.8
2018-12-18T06:55:01.080Z,41.4
2018-12-18T07:00:00.944Z,40.9
2018-12-18T07:05:00.930Z,41.5
2018-12-18T07:10:00.906Z,40.9
2018-12-18T07:15:00.909Z,41.1
2018-12-18T07:20:00.907Z,41.7
2018-12-18T07:25:01.051Z,42.6
2018-12-18T07:30:02.317Z,40.6
2018-12-18T07:35:00.908Z,40.0
2018-12-18T07:40:00.913Z,38.1
2018-12-18T07:45:00.919Z,36.9
2018-12-18T07:50:00.915Z,36.1
2018-12-18T07:55:01.050Z,35.6
2018-12-18T08:00:00.932Z,34.6
2018-12-18T08:05:00.930Z,34.9
2018-12-18T08:10:00.927Z,31.7
2018-12-18T08:15:00.935Z,29.2
2018-12-18T08:20:00.930Z,28.9
2018-12-18T08:25:01.002Z,27.4
2018-12-18T08:30:00.936Z,24.8
2018-12-18T08:35:00.935Z,24.5
2018-12-18T08:40:00.930Z,22.9
2018-12-18T08:45:00.935Z,22.6
2018-12-18T08:50:00.941Z,22.4
2018-12-18T08:55:00.944Z,21.8
2018-12-18T09:00:00.941Z,22.4
2018-12-18T09:05:06.082Z,22.8
2018-12-18T09:10:00.943Z,21.6
2018-12-18T09:15:01.010Z,23.3
2018-12-18T09:20:01.041Z,23.7
2018-12-18T09:25:01.011Z,21.9
2018-12-18T09:30:00.978Z,22.8
2018-12-18T09:35:00.991Z,22.4
2018-12-18T09:40:00.983Z,20.2
2018-12-18T09:45:06.090Z,19.9
2018-12-18T09:50:00.959Z,21.7
2018-12-18T09:55:01.019Z,21.6
2018-12-18T10:00:00.952Z,23.2
2018-12-18T10:05:00.952Z,25.5
2018-12-18T10:10:01.440Z,26.0
2018-12-18T10:15:01.018Z,25.7
2018-12-18T10:20:00.952Z,26.2
2018-12-18T10:25:01.018Z,26.5
2018-12-18T10:30:00.955Z,25.3
2018-12-18T10:35:01.083Z,25.0
2018-12-18T10:40:00.984Z,25.8
2018-12-18T10:45:01.100Z,25.4
2018-12-18T10:50:00.961Z,27.6
2018-12-18T10:55:01.000Z,28.8
2018-12-18T11:00:00.986Z,31.2
2018-12-18T11:05:00.997Z,31.6
2018-12-18T11:10:00.988Z,30.7
2018-12-18T11:15:01.061Z,28.9
2018-12-18T11:25:00.991Z,28.2
2018-12-18T11:30:00.993Z,27.4
2018-12-18T11:35:01.132Z,27.6
2018-12-18T11:40:05.985Z,26.2
2018-12-18T11:45:01.064Z,25.9
2018-12-18T11:50:01.001Z,24.0
2018-12-18T11:55:01.007Z,22.8
2018-12-18T12:00:01.001Z,23.2
2018-12-18T12:05:01.130Z,23.7
2018-12-18T12:10:00.983Z,22.5
2018-12-18T12:15:01.118Z,23.1
2018-12-18T12:20:00.992Z,24.2
2018-12-18T12:25:01.055Z,24.8
2018-12-18T12:30:00.989Z,25.4
2018-12-18T12:35:01.056Z,28.0
2018-12-18T12:40:00.990Z,28.5
2018-12-18T12:45:01.122Z,29.0
2018-12-18T12:50:00.986Z,28.4
2018-12-18T12:55:00.989Z,29.0
2018-12-18T13:00:00.991Z,28.2
2018-12-18T13:05:01.060Z,28.4
2018-12-18T13:10:00.990Z,29.3
2018-12-18T13:15:01.121Z,29.5
2018-12-18T13:20:00.992Z,28.4
2018-12-18T13:25:01.127Z,26.4
2018-12-18T13:30:00.996Z,27.1
2018-12-18T13:35:01.064Z,26.1
2018-12-18T13:40:00.999Z,26.8
2018-12-18T13:45:01.159Z,26.4
2018-12-18T13:50:01.035Z,27.9
2018-12-18T13:55:01.103Z,26.2
2018-12-18T14:00:01.049Z,26.0
2018-12-18T14:05:01.042Z,25.1
2018-12-18T14:10:01.004Z,27.3
2018-12-18T14:15:01.072Z,26.0
2018-12-18T14:20:01.017Z,27.9
2018-12-18T14:25:01.018Z,29.2
2018-12-18T14:30:01.010Z,30.3
2018-12-18T14:35:01.082Z,29.0
2018-12-18T14:40:01.010Z,29.6
2018-12-18T14:45:01.033Z,26.4
2018-12-18T14:50:01.013Z,24.2
2018-12-18T14:55:01.158Z,23.6
2018-12-18T15:00:01.024Z,22.6
2018-12-18T15:05:01.219Z,21.2
2018-12-18T15:10:01.028Z,22.8
2018-12-18T15:15:01.119Z,25.3
2018-12-18T15:20:01.029Z,26.4
2018-12-18T15:25:01.068Z,27.3
2018-12-18T15:30:01.022Z,30.9
2018-12-18T15:35:01.091Z,31.7
2018-12-18T15:40:01.031Z,33.1
2018-12-18T15:45:01.103Z,34.6
2018-12-18T15:50:01.028Z,35.8
2018-12-18T15:55:01.164Z,35.5
2018-12-18T16:00:01.029Z,37.2
2018-12-18T16:05:01.148Z,37.9
2018-12-18T16:15:01.091Z,38.5
2018-12-18T16:20:01.060Z,39.3
2018-12-18T16:25:01.205Z,41.0
2018-12-18T16:30:01.074Z,40.1
2018-12-18T16:35:01.137Z,40.4
2018-12-18T16:40:01.138Z,42.4
2018-12-18T16:45:01.139Z,43.7
2018-12-18T16:50:01.074Z,44.0
2018-12-18T16:55:01.226Z,45.1
2018-12-18T17:00:01.082Z,46.4
2018-12-18T17:05:02.189Z,47.4
2018-12-18T17:10:01.063Z,47.0
2018-12-18T17:15:01.255Z,47.0
2018-12-18T17:20:01.042Z,46.6
2018-12-18T17:25:01.107Z,46.2
2018-12-18T17:30:01.258Z,46.2
2018-12-18T17:35:01.991Z,47.0
2018-12-18T17:40:01.054Z,48.6
2018-12-18T17:45:01.184Z,49.4
2018-12-18T17:50:01.054Z,52.2
2018-12-18T17:55:01.205Z,50.9
2018-12-18T18:00:01.075Z,52.2
2018-12-18T18:05:06.125Z,50.9
2018-12-18T18:10:01.048Z,50.1
2018-12-18T18:15:01.122Z,46.4
2018-12-18T18:20:01.061Z,47.6
2018-12-18T18:25:01.128Z,44.0
2018-12-18T18:30:01.087Z,42.7
2018-12-18T18:35:01.457Z,41.9
2018-12-18T18:40:01.064Z,41.6
2018-12-18T18:45:01.166Z,39.4
2018-12-18T18:50:01.089Z,40.7
2018-12-18T18:55:01.157Z,39.4
2018-12-18T19:00:01.068Z,39.9
2018-12-18T19:05:01.137Z,38.8
2018-12-18T19:15:01.167Z,36.5
2018-12-18T19:20:01.071Z,36.3
2018-12-18T19:25:01.141Z,35.6
2018-12-18T19:30:01.075Z,33.8
2018-12-18T19:35:01.142Z,32.4
2018-12-18T19:40:01.078Z,31.4
2018-12-18T19:45:01.071Z,30.2
2018-12-18T19:50:01.079Z,28.7
2018-12-18T20:00:01.089Z,27.4
2018-12-18T20:05:01.146Z,26.9
2018-12-18T20:10:01.083Z,28.1
2018-12-18T20:15:01.085Z,27.7
2018-12-18T20:25:01.087Z,27.6
2018-12-18T20:30:01.087Z,27.7
2018-12-18T20:35:01.259Z,26.4
2018-12-18T20:40:01.089Z,25.3
2018-12-18T20:45:01.223Z,23.8
2018-12-18T20:50:01.087Z,22.2
2018-12-18T20:55:01.118Z,22.6
2018-12-18T21:00:06.107Z,22.2
2018-12-18T21:05:01.122Z,22.6
2018-12-18T21:10:01.099Z,23.4
2018-12-18T21:15:01.230Z,24.7
2018-12-18T21:20:01.096Z,23.9
2018-12-18T21:25:01.096Z,22.8
2018-12-18T21:30:01.094Z,22.4
2018-12-18T21:35:01.159Z,22.7
2018-12-18T21:40:01.132Z,23.1
2018-12-18T21:45:01.101Z,23.8
2018-12-18T21:50:01.119Z,24.8
2018-12-18T21:55:01.232Z,25.2
2018-12-18T22:00:01.101Z,24.7
2018-12-18T22:05:01.167Z,25.4
2018-12-18T22:10:01.105Z,25.9
2018-12-18T22:15:06.190Z,27.3
2018-12-18T22:20:02.132Z,27.0
2018-12-18T22:25:06.235Z,28.4
2018-12-18T22:30:01.105Z,29.8
2018-12-18T22:35:06.186Z,29.2
2018-12-18T22:40:06.298Z,30.2
2018-12-18T22:45:06.179Z,31.6
2018-12-18T22:55:01.208Z,30.9
2018-12-18T23:00:01.162Z,31.3
2018-12-18T23:05:01.236Z,29.7
2018-12-18T23:10:01.105Z,30.2
2018-12-18T23:15:01.165Z,30.7
2018-12-18T23:20:01.105Z,31.3
2018-12-18T23:25:01.169Z,30.1
2018-12-18T23:30:01.096Z,31.4
2018-12-18T23:40:01.838Z,30.3
2018-12-18T23:45:01.182Z,30.1
2018-12-18T23:50:01.109Z,32.3
2018-12-18T23:55:01.174Z,31.7
